sensor_id;sensor_type;location;lat;lon;timestamp;P1;durP1;ratioP1;P2;durP2;ratioP2
60472;SDS011;46318;52.716;6.444;2023-07-22T00:02:21;11.93;;;8.13;;
60472;SDS011;46318;52.716;6.444;2023-07-22T00:04:48;11.63;;;7.75;;
60472;SDS011;46318;52.716;6.444;2023-07-22T00:07:14;11.13;;;7.57;;
60472;SDS011;46318;52.716;6.444;2023-07-22T00:09:41;10.45;;;7.90;;
60472;SDS011;46318;52.716;6.444;2023-07-22T00:12:08;14.02;;;7.45;;
60472;SDS011;46318;52.716;6.444;2023-07-22T00:14:44;11.48;;;7.85;;
60472;SDS011;46318;52.716;6.444;2023-07-22T00:17:10;9.85;;;7.57;;
60472;SDS011;46318;52.716;6.444;2023-07-22T00:19:38;10.18;;;7.57;;
60472;SDS011;46318;52.716;6.444;2023-07-22T00:22:04;10.82;;;7.85;;
60472;SDS011;46318;52.716;6.444;2023-07-22T00:24:33;10.55;;;8.05;;
60472;SDS011;46318;52.716;6.444;2023-07-22T00:26:59;10.10;;;8.40;;
60472;SDS011;46318;52.716;6.444;2023-07-22T00:29:25;10.57;;;7.90;;
60472;SDS011;46318;52.716;6.444;2023-07-22T00:31:51;13.00;;;8.68;;
60472;SDS011;46318;52.716;6.444;2023-07-22T00:34:17;10.60;;;7.38;;
60472;SDS011;46318;52.716;6.444;2023-07-22T00:36:43;14.20;;;8.32;;
60472;SDS011;46318;52.716;6.444;2023-07-22T00:39:13;11.85;;;9.07;;
60472;SDS011;46318;52.716;6.444;2023-07-22T00:41:39;11.80;;;8.05;;
60472;SDS011;46318;52.716;6.444;2023-07-22T00:44:07;11.43;;;8.05;;
60472;SDS011;46318;52.716;6.444;2023-07-22T00:46:33;13.55;;;9.18;;
60472;SDS011;46318;52.716;6.444;2023-07-22T00:48:59;10.45;;;8.25;;
60472;SDS011;46318;52.716;6.444;2023-07-22T00:51:25;11.93;;;8.65;;
60472;SDS011;46318;52.716;6.444;2023-07-22T00:53:51;10.45;;;7.97;;
60472;SDS011;46318;52.716;6.444;2023-07-22T00:56:17;12.30;;;8.27;;
60472;SDS011;46318;52.716;6.444;2023-07-22T00:58:43;10.65;;;8.93;;
60472;SDS011;46318;52.716;6.444;2023-07-22T01:01:09;8.70;;;7.63;;
60472;SDS011;46318;52.716;6.444;2023-07-22T01:03:35;11.43;;;8.30;;
60472;SDS011;46318;52.716;6.444;2023-07-22T01:06:01;11.02;;;8.10;;
60472;SDS011;46318;52.716;6.444;2023-07-22T01:08:27;11.88;;;8.15;;
60472;SDS011;46318;52.716;6.444;2023-07-22T01:10:54;10.75;;;7.90;;
60472;SDS011;46318;52.716;6.444;2023-07-22T01:13:19;11.07;;;8.10;;
60472;SDS011;46318;52.716;6.444;2023-07-22T01:15:45;10.07;;;8.35;;
60472;SDS011;46318;52.716;6.444;2023-07-22T01:18:12;11.82;;;8.88;;
60472;SDS011;46318;52.716;6.444;2023-07-22T01:20:41;9.77;;;7.93;;
60472;SDS011;46318;52.716;6.444;2023-07-22T01:23:07;12.18;;;7.82;;
60472;SDS011;46318;52.716;6.444;2023-07-22T01:25:37;10.57;;;8.43;;
60472;SDS011;46318;52.716;6.444;2023-07-22T01:28:03;14.40;;;8.90;;
60472;SDS011;46318;52.716;6.444;2023-07-22T01:30:36;11.57;;;8.98;;
60472;SDS011;46318;52.716;6.444;2023-07-22T01:33:02;10.70;;;8.75;;
60472;SDS011;46318;52.716;6.444;2023-07-22T01:35:28;11.10;;;8.00;;
60472;SDS011;46318;52.716;6.444;2023-07-22T01:37:54;10.85;;;8.63;;
60472;SDS011;46318;52.716;6.444;2023-07-22T01:40:20;14.18;;;9.57;;
60472;SDS011;46318;52.716;6.444;2023-07-22T01:42:46;10.10;;;8.50;;
60472;SDS011;46318;52.716;6.444;2023-07-22T01:45:11;11.82;;;8.13;;
60472;SDS011;46318;52.716;6.444;2023-07-22T01:47:38;13.85;;;8.63;;
60472;SDS011;46318;52.716;6.444;2023-07-22T01:50:06;12.57;;;8.40;;
60472;SDS011;46318;52.716;6.444;2023-07-22T01:52:35;11.07;;;8.65;;
60472;SDS011;46318;52.716;6.444;2023-07-22T01:55:01;11.75;;;9.23;;
60472;SDS011;46318;52.716;6.444;2023-07-22T01:57:30;13.25;;;9.27;;
60472;SDS011;46318;52.716;6.444;2023-07-22T01:59:59;11.88;;;8.95;;
60472;SDS011;46318;52.716;6.444;2023-07-22T02:02:26;13.57;;;9.32;;
60472;SDS011;46318;52.716;6.444;2023-07-22T02:04:51;11.32;;;9.02;;
60472;SDS011;46318;52.716;6.444;2023-07-22T02:07:20;9.95;;;8.82;;
60472;SDS011;46318;52.716;6.444;2023-07-22T02:09:46;12.25;;;9.70;;
60472;SDS011;46318;52.716;6.444;2023-07-22T02:12:12;12.25;;;9.13;;
60472;SDS011;46318;52.716;6.444;2023-07-22T02:14:38;12.07;;;9.48;;
60472;SDS011;46318;52.716;6.444;2023-07-22T02:17:05;13.30;;;9.15;;
60472;SDS011;46318;52.716;6.444;2023-07-22T02:19:30;11.73;;;9.38;;
60472;SDS011;46318;52.716;6.444;2023-07-22T02:21:57;12.57;;;8.98;;
60472;SDS011;46318;52.716;6.444;2023-07-22T02:24:23;13.82;;;9.90;;
60472;SDS011;46318;52.716;6.444;2023-07-22T02:26:49;15.48;;;9.98;;
60472;SDS011;46318;52.716;6.444;2023-07-22T02:29:15;13.50;;;10.15;;
60472;SDS011;46318;52.716;6.444;2023-07-22T02:31:41;15.32;;;10.50;;
60472;SDS011;46318;52.716;6.444;2023-07-22T02:34:07;13.02;;;10.63;;
60472;SDS011;46318;52.716;6.444;2023-07-22T02:36:32;14.85;;;10.45;;
60472;SDS011;46318;52.716;6.444;2023-07-22T02:38:58;14.45;;;10.05;;
60472;SDS011;46318;52.716;6.444;2023-07-22T02:41:24;15.77;;;10.65;;
60472;SDS011;46318;52.716;6.444;2023-07-22T02:43:50;12.82;;;9.95;;
60472;SDS011;46318;52.716;6.444;2023-07-22T02:46:16;14.15;;;10.25;;
60472;SDS011;46318;52.716;6.444;2023-07-22T02:48:43;12.40;;;9.77;;
60472;SDS011;46318;52.716;6.444;2023-07-22T02:51:09;16.77;;;10.88;;
60472;SDS011;46318;52.716;6.444;2023-07-22T02:53:38;18.10;;;10.95;;
60472;SDS011;46318;52.716;6.444;2023-07-22T02:56:06;15.00;;;10.88;;
60472;SDS011;46318;52.716;6.444;2023-07-22T02:58:33;15.55;;;10.88;;
60472;SDS011;46318;52.716;6.444;2023-07-22T03:00:59;13.35;;;9.90;;
60472;SDS011;46318;52.716;6.444;2023-07-22T03:03:25;14.80;;;10.63;;
60472;SDS011;46318;52.716;6.444;2023-07-22T03:05:51;15.35;;;10.32;;
60472;SDS011;46318;52.716;6.444;2023-07-22T03:08:17;14.10;;;10.50;;
60472;SDS011;46318;52.716;6.444;2023-07-22T03:10:43;13.55;;;9.70;;
60472;SDS011;46318;52.716;6.444;2023-07-22T03:13:14;15.02;;;11.50;;
60472;SDS011;46318;52.716;6.444;2023-07-22T03:15:40;13.40;;;10.13;;
60472;SDS011;46318;52.716;6.444;2023-07-22T03:18:07;15.30;;;10.52;;
60472;SDS011;46318;52.716;6.444;2023-07-22T03:20:35;16.73;;;10.88;;
60472;SDS011;46318;52.716;6.444;2023-07-22T03:23:05;13.80;;;10.27;;
60472;SDS011;46318;52.716;6.444;2023-07-22T03:25:32;12.98;;;10.35;;
60472;SDS011;46318;52.716;6.444;2023-07-22T03:28:03;12.38;;;9.73;;
60472;SDS011;46318;52.716;6.444;2023-07-22T03:30:30;13.15;;;10.02;;
60472;SDS011;46318;52.716;6.444;2023-07-22T03:32:57;13.45;;;10.45;;
60472;SDS011;46318;52.716;6.444;2023-07-22T03:35:23;12.68;;;10.05;;
60472;SDS011;46318;52.716;6.444;2023-07-22T03:37:50;15.45;;;10.18;;
60472;SDS011;46318;52.716;6.444;2023-07-22T03:40:16;12.73;;;9.93;;
60472;SDS011;46318;52.716;6.444;2023-07-22T03:42:51;11.02;;;9.00;;
60472;SDS011;46318;52.716;6.444;2023-07-22T03:45:19;11.20;;;9.63;;
60472;SDS011;46318;52.716;6.444;2023-07-22T03:47:49;11.55;;;10.18;;
60472;SDS011;46318;52.716;6.444;2023-07-22T03:50:23;14.40;;;11.93;;
60472;SDS011;46318;52.716;6.444;2023-07-22T03:52:49;15.18;;;12.63;;
60472;SDS011;46318;52.716;6.444;2023-07-22T03:55:15;13.27;;;10.48;;
60472;SDS011;46318;52.716;6.444;2023-07-22T03:57:41;11.73;;;9.90;;
60472;SDS011;46318;52.716;6.444;2023-07-22T04:00:07;12.30;;;9.75;;
60472;SDS011;46318;52.716;6.444;2023-07-22T04:02:36;13.15;;;10.65;;
60472;SDS011;46318;52.716;6.444;2023-07-22T04:05:02;13.05;;;11.38;;
60472;SDS011;46318;52.716;6.444;2023-07-22T04:07:29;12.55;;;10.73;;
60472;SDS011;46318;52.716;6.444;2023-07-22T04:09:55;13.10;;;10.27;;
60472;SDS011;46318;52.716;6.444;2023-07-22T04:12:21;11.25;;;9.50;;
60472;SDS011;46318;52.716;6.444;2023-07-22T04:14:52;12.38;;;10.45;;
60472;SDS011;46318;52.716;6.444;2023-07-22T04:17:21;11.73;;;9.68;;
60472;SDS011;46318;52.716;6.444;2023-07-22T04:19:47;12.10;;;10.02;;
60472;SDS011;46318;52.716;6.444;2023-07-22T04:22:13;11.88;;;10.20;;
60472;SDS011;46318;52.716;6.444;2023-07-22T04:24:38;14.32;;;9.88;;
60472;SDS011;46318;52.716;6.444;2023-07-22T04:27:05;14.88;;;12.32;;
60472;SDS011;46318;52.716;6.444;2023-07-22T04:29:31;17.65;;;13.52;;
60472;SDS011;46318;52.716;6.444;2023-07-22T04:32:01;15.20;;;11.88;;
60472;SDS011;46318;52.716;6.444;2023-07-22T04:34:31;11.82;;;10.15;;
60472;SDS011;46318;52.716;6.444;2023-07-22T04:36:57;14.65;;;11.38;;
60472;SDS011;46318;52.716;6.444;2023-07-22T04:39:23;11.98;;;10.07;;
60472;SDS011;46318;52.716;6.444;2023-07-22T04:41:50;14.40;;;10.10;;
60472;SDS011;46318;52.716;6.444;2023-07-22T04:44:16;14.88;;;11.30;;
60472;SDS011;46318;52.716;6.444;2023-07-22T04:46:45;14.73;;;11.40;;
60472;SDS011;46318;52.716;6.444;2023-07-22T04:49:11;14.85;;;10.95;;
60472;SDS011;46318;52.716;6.444;2023-07-22T04:51:38;11.38;;;9.52;;
60472;SDS011;46318;52.716;6.444;2023-07-22T04:54:04;12.38;;;10.13;;
60472;SDS011;46318;52.716;6.444;2023-07-22T04:56:30;13.10;;;10.32;;
60472;SDS011;46318;52.716;6.444;2023-07-22T04:58:56;13.73;;;10.05;;
60472;SDS011;46318;52.716;6.444;2023-07-22T05:01:22;12.68;;;10.95;;
60472;SDS011;46318;52.716;6.444;2023-07-22T05:03:49;14.60;;;10.90;;
60472;SDS011;46318;52.716;6.444;2023-07-22T05:06:15;13.88;;;10.88;;
60472;SDS011;46318;52.716;6.444;2023-07-22T05:08:47;12.45;;;10.50;;
60472;SDS011;46318;52.716;6.444;2023-07-22T05:11:13;13.52;;;10.35;;
60472;SDS011;46318;52.716;6.444;2023-07-22T05:13:39;16.00;;;10.65;;
60472;SDS011;46318;52.716;6.444;2023-07-22T05:16:05;12.80;;;10.60;;
60472;SDS011;46318;52.716;6.444;2023-07-22T05:18:31;14.60;;;10.57;;
60472;SDS011;46318;52.716;6.444;2023-07-22T05:20:56;13.38;;;11.18;;
60472;SDS011;46318;52.716;6.444;2023-07-22T05:23:22;13.38;;;11.27;;
60472;SDS011;46318;52.716;6.444;2023-07-22T05:25:52;12.43;;;10.15;;
60472;SDS011;46318;52.716;6.444;2023-07-22T05:28:20;16.45;;;11.63;;
60472;SDS011;46318;52.716;6.444;2023-07-22T05:30:46;16.10;;;11.65;;
60472;SDS011;46318;52.716;6.444;2023-07-22T05:33:12;14.30;;;11.23;;
60472;SDS011;46318;52.716;6.444;2023-07-22T05:35:38;14.25;;;12.13;;
60472;SDS011;46318;52.716;6.444;2023-07-22T05:38:04;15.80;;;12.43;;
60472;SDS011;46318;52.716;6.444;2023-07-22T05:40:31;15.27;;;12.18;;
60472;SDS011;46318;52.716;6.444;2023-07-22T05:42:57;16.55;;;12.75;;
60472;SDS011;46318;52.716;6.444;2023-07-22T05:45:23;16.65;;;13.23;;
60472;SDS011;46318;52.716;6.444;2023-07-22T05:47:49;19.70;;;14.70;;
60472;SDS011;46318;52.716;6.444;2023-07-22T05:50:15;16.15;;;13.10;;
60472;SDS011;46318;52.716;6.444;2023-07-22T05:52:41;19.90;;;14.77;;
60472;SDS011;46318;52.716;6.444;2023-07-22T05:55:10;18.33;;;13.80;;
60472;SDS011;46318;52.716;6.444;2023-07-22T05:57:37;19.40;;;14.00;;
60472;SDS011;46318;52.716;6.444;2023-07-22T06:00:03;16.58;;;12.40;;
60472;SDS011;46318;52.716;6.444;2023-07-22T06:02:30;19.98;;;14.95;;
60472;SDS011;46318;52.716;6.444;2023-07-22T06:04:56;22.10;;;16.08;;
60472;SDS011;46318;52.716;6.444;2023-07-22T06:07:22;20.80;;;15.90;;
60472;SDS011;46318;52.716;6.444;2023-07-22T06:09:48;21.80;;;15.90;;
60472;SDS011;46318;52.716;6.444;2023-07-22T06:12:14;21.30;;;15.65;;
60472;SDS011;46318;52.716;6.444;2023-07-22T06:14:40;23.05;;;15.90;;
60472;SDS011;46318;52.716;6.444;2023-07-22T06:17:06;23.48;;;17.45;;
60472;SDS011;46318;52.716;6.444;2023-07-22T06:19:35;22.30;;;16.10;;
60472;SDS011;46318;52.716;6.444;2023-07-22T06:22:01;24.50;;;15.82;;
60472;SDS011;46318;52.716;6.444;2023-07-22T06:24:27;22.95;;;17.35;;
60472;SDS011;46318;52.716;6.444;2023-07-22T06:26:54;19.83;;;15.55;;
60472;SDS011;46318;52.716;6.444;2023-07-22T06:29:19;25.17;;;16.60;;
60472;SDS011;46318;52.716;6.444;2023-07-22T06:31:47;23.23;;;16.67;;
60472;SDS011;46318;52.716;6.444;2023-07-22T06:34:13;23.02;;;16.45;;
60472;SDS011;46318;52.716;6.444;2023-07-22T06:36:39;22.17;;;16.40;;
60472;SDS011;46318;52.716;6.444;2023-07-22T06:39:06;19.90;;;15.80;;
60472;SDS011;46318;52.716;6.444;2023-07-22T06:41:32;24.42;;;16.88;;
60472;SDS011;46318;52.716;6.444;2023-07-22T06:43:58;23.10;;;16.85;;
60472;SDS011;46318;52.716;6.444;2023-07-22T06:46:24;21.73;;;16.23;;
60472;SDS011;46318;52.716;6.444;2023-07-22T06:48:50;21.25;;;15.23;;
60472;SDS011;46318;52.716;6.444;2023-07-22T06:51:15;22.05;;;16.30;;
60472;SDS011;46318;52.716;6.444;2023-07-22T06:53:41;22.75;;;16.95;;
60472;SDS011;46318;52.716;6.444;2023-07-22T06:56:07;21.27;;;16.67;;
60472;SDS011;46318;52.716;6.444;2023-07-22T06:58:33;23.38;;;16.60;;
60472;SDS011;46318;52.716;6.444;2023-07-22T07:00:59;21.73;;;16.92;;
60472;SDS011;46318;52.716;6.444;2023-07-22T07:03:26;25.70;;;17.55;;
60472;SDS011;46318;52.716;6.444;2023-07-22T07:05:53;23.02;;;18.40;;
60472;SDS011;46318;52.716;6.444;2023-07-22T07:08:20;23.40;;;17.50;;
60472;SDS011;46318;52.716;6.444;2023-07-22T07:10:46;19.83;;;15.55;;
60472;SDS011;46318;52.716;6.444;2023-07-22T07:13:13;23.08;;;17.30;;
60472;SDS011;46318;52.716;6.444;2023-07-22T07:15:39;23.25;;;16.52;;
60472;SDS011;46318;52.716;6.444;2023-07-22T07:18:05;24.27;;;17.25;;
60472;SDS011;46318;52.716;6.444;2023-07-22T07:20:31;19.90;;;15.73;;
60472;SDS011;46318;52.716;6.444;2023-07-22T07:22:57;22.40;;;15.98;;
60472;SDS011;46318;52.716;6.444;2023-07-22T07:25:23;20.98;;;16.60;;
60472;SDS011;46318;52.716;6.444;2023-07-22T07:27:49;23.08;;;15.70;;
60472;SDS011;46318;52.716;6.444;2023-07-22T07:30:15;22.25;;;16.38;;
60472;SDS011;46318;52.716;6.444;2023-07-22T07:32:43;19.60;;;15.40;;
60472;SDS011;46318;52.716;6.444;2023-07-22T07:35:12;19.30;;;15.50;;
60472;SDS011;46318;52.716;6.444;2023-07-22T07:37:37;19.23;;;15.00;;
60472;SDS011;46318;52.716;6.444;2023-07-22T07:40:03;19.58;;;15.73;;
60472;SDS011;46318;52.716;6.444;2023-07-22T07:42:30;20.50;;;15.45;;
60472;SDS011;46318;52.716;6.444;2023-07-22T07:44:56;20.02;;;15.88;;
60472;SDS011;46318;52.716;6.444;2023-07-22T07:47:22;22.13;;;16.48;;
60472;SDS011;46318;52.716;6.444;2023-07-22T07:49:48;19.90;;;14.88;;
60472;SDS011;46318;52.716;6.444;2023-07-22T07:52:14;19.98;;;14.57;;
60472;SDS011;46318;52.716;6.444;2023-07-22T07:54:40;20.42;;;16.10;;
60472;SDS011;46318;52.716;6.444;2023-07-22T07:57:06;23.02;;;15.90;;
60472;SDS011;46318;52.716;6.444;2023-07-22T07:59:33;20.88;;;15.20;;
60472;SDS011;46318;52.716;6.444;2023-07-22T08:01:59;20.33;;;16.20;;
60472;SDS011;46318;52.716;6.444;2023-07-22T08:04:25;19.55;;;14.73;;
60472;SDS011;46318;52.716;6.444;2023-07-22T08:06:51;19.48;;;15.43;;
60472;SDS011;46318;52.716;6.444;2023-07-22T08:09:17;18.77;;;15.23;;
60472;SDS011;46318;52.716;6.444;2023-07-22T08:11:46;20.42;;;15.60;;
60472;SDS011;46318;52.716;6.444;2023-07-22T08:14:13;20.73;;;15.77;;
60472;SDS011;46318;52.716;6.444;2023-07-22T08:16:39;19.27;;;15.98;;
60472;SDS011;46318;52.716;6.444;2023-07-22T08:19:05;21.98;;;15.35;;
60472;SDS011;46318;52.716;6.444;2023-07-22T08:21:31;19.08;;;15.13;;
60472;SDS011;46318;52.716;6.444;2023-07-22T08:23:57;18.25;;;15.23;;
60472;SDS011;46318;52.716;6.444;2023-07-22T08:26:23;21.63;;;15.85;;
60472;SDS011;46318;52.716;6.444;2023-07-22T08:28:49;18.02;;;14.70;;
60472;SDS011;46318;52.716;6.444;2023-07-22T08:31:15;17.75;;;14.70;;
60472;SDS011;46318;52.716;6.444;2023-07-22T08:33:41;18.17;;;14.88;;
60472;SDS011;46318;52.716;6.444;2023-07-22T08:36:07;16.65;;;14.35;;
60472;SDS011;46318;52.716;6.444;2023-07-22T08:38:34;18.05;;;15.02;;
60472;SDS011;46318;52.716;6.444;2023-07-22T08:41:00;14.30;;;12.48;;
60472;SDS011;46318;52.716;6.444;2023-07-22T08:43:28;17.05;;;12.27;;
60472;SDS011;46318;52.716;6.444;2023-07-22T08:45:55;15.35;;;13.73;;
60472;SDS011;46318;52.716;6.444;2023-07-22T08:48:29;16.42;;;13.38;;
60472;SDS011;46318;52.716;6.444;2023-07-22T08:51:10;16.15;;;14.10;;
60472;SDS011;46318;52.716;6.444;2023-07-22T08:53:44;21.20;;;15.55;;
60472;SDS011;46318;52.716;6.444;2023-07-22T08:56:11;15.50;;;12.77;;
60472;SDS011;46318;52.716;6.444;2023-07-22T08:58:38;18.50;;;14.68;;
60472;SDS011;46318;52.716;6.444;2023-07-22T09:01:04;16.48;;;13.98;;
60472;SDS011;46318;52.716;6.444;2023-07-22T09:03:30;16.73;;;14.07;;
60472;SDS011;46318;52.716;6.444;2023-07-22T09:06:00;15.52;;;13.50;;
60472;SDS011;46318;52.716;6.444;2023-07-22T09:08:29;17.17;;;13.27;;
60472;SDS011;46318;52.716;6.444;2023-07-22T09:10:55;18.45;;;14.07;;
60472;SDS011;46318;52.716;6.444;2023-07-22T09:13:21;27.55;;;19.15;;
60472;SDS011;46318;52.716;6.444;2023-07-22T09:15:50;21.60;;;15.70;;
60472;SDS011;46318;52.716;6.444;2023-07-22T09:18:16;17.85;;;13.75;;
60472;SDS011;46318;52.716;6.444;2023-07-22T09:20:42;15.43;;;11.40;;
60472;SDS011;46318;52.716;6.444;2023-07-22T09:23:10;13.20;;;10.75;;
60472;SDS011;46318;52.716;6.444;2023-07-22T09:25:37;14.32;;;10.32;;
60472;SDS011;46318;52.716;6.444;2023-07-22T09:28:06;11.93;;;10.52;;
60472;SDS011;46318;52.716;6.444;2023-07-22T09:30:39;11.85;;;10.30;;
60472;SDS011;46318;52.716;6.444;2023-07-22T09:33:06;12.50;;;10.63;;
60472;SDS011;46318;52.716;6.444;2023-07-22T09:35:45;10.70;;;9.60;;
60472;SDS011;46318;52.716;6.444;2023-07-22T09:38:13;12.80;;;10.60;;
60472;SDS011;46318;52.716;6.444;2023-07-22T09:40:42;14.07;;;10.45;;
60472;SDS011;46318;52.716;6.444;2023-07-22T09:43:09;15.40;;;11.77;;
60472;SDS011;46318;52.716;6.444;2023-07-22T09:45:39;14.55;;;11.20;;
60472;SDS011;46318;52.716;6.444;2023-07-22T09:48:07;13.38;;;11.32;;
60472;SDS011;46318;52.716;6.444;2023-07-22T09:50:39;14.45;;;12.88;;
60472;SDS011;46318;52.716;6.444;2023-07-22T09:53:09;17.27;;;11.55;;
60472;SDS011;46318;52.716;6.444;2023-07-22T09:55:49;11.60;;;10.40;;
60472;SDS011;46318;52.716;6.444;2023-07-22T09:58:24;15.10;;;12.18;;
60472;SDS011;46318;52.716;6.444;2023-07-22T10:00:54;15.70;;;10.68;;
60472;SDS011;46318;52.716;6.444;2023-07-22T10:03:22;11.75;;;10.55;;
60472;SDS011;46318;52.716;6.444;2023-07-22T10:05:58;12.60;;;10.38;;
60472;SDS011;46318;52.716;6.444;2023-07-22T10:08:29;13.15;;;10.80;;
60472;SDS011;46318;52.716;6.444;2023-07-22T10:10:59;13.05;;;11.48;;
60472;SDS011;46318;52.716;6.444;2023-07-22T10:13:29;14.95;;;12.43;;
60472;SDS011;46318;52.716;6.444;2023-07-22T10:15:55;14.45;;;12.20;;
60472;SDS011;46318;52.716;6.444;2023-07-22T10:18:22;13.35;;;11.35;;
60472;SDS011;46318;52.716;6.444;2023-07-22T10:20:49;14.85;;;11.93;;
60472;SDS011;46318;52.716;6.444;2023-07-22T10:23:17;15.27;;;13.68;;
60472;SDS011;46318;52.716;6.444;2023-07-22T10:25:44;20.98;;;13.07;;
60472;SDS011;46318;52.716;6.444;2023-07-22T10:28:12;20.83;;;18.27;;
60472;SDS011;46318;52.716;6.444;2023-07-22T10:30:38;15.05;;;13.40;;
60472;SDS011;46318;52.716;6.444;2023-07-22T10:33:09;22.33;;;17.95;;
60472;SDS011;46318;52.716;6.444;2023-07-22T10:35:41;19.75;;;17.70;;
60472;SDS011;46318;52.716;6.444;2023-07-22T10:38:14;41.97;;;36.75;;
60472;SDS011;46318;52.716;6.444;2023-07-22T10:40:49;22.13;;;19.63;;
60472;SDS011;46318;52.716;6.444;2023-07-22T10:43:24;16.00;;;14.20;;
60472;SDS011;46318;52.716;6.444;2023-07-22T10:46:36;16.55;;;12.10;;
60472;SDS011;46318;52.716;6.444;2023-07-22T10:49:12;15.02;;;12.98;;
60472;SDS011;46318;52.716;6.444;2023-07-22T10:51:41;15.18;;;12.38;;
60472;SDS011;46318;52.716;6.444;2023-07-22T10:54:13;14.07;;;11.77;;
60472;SDS011;46318;52.716;6.444;2023-07-22T10:59:48;16.83;;;12.13;;
60472;SDS011;46318;52.716;6.444;2023-07-22T11:02:27;11.98;;;10.23;;
60472;SDS011;46318;52.716;6.444;2023-07-22T11:04:58;10.50;;;8.40;;
60472;SDS011;46318;52.716;6.444;2023-07-22T11:10:18;8.98;;;8.07;;
60472;SDS011;46318;52.716;6.444;2023-07-22T11:12:47;10.43;;;8.90;;
60472;SDS011;46318;52.716;6.444;2023-07-22T11:15:16;11.93;;;9.25;;
60472;SDS011;46318;52.716;6.444;2023-07-22T11:17:42;11.52;;;9.80;;
60472;SDS011;46318;52.716;6.444;2023-07-22T11:20:10;10.25;;;9.15;;
60472;SDS011;46318;52.716;6.444;2023-07-22T11:22:38;11.93;;;10.23;;
60472;SDS011;46318;52.716;6.444;2023-07-22T11:25:06;11.02;;;9.93;;
60472;SDS011;46318;52.716;6.444;2023-07-22T11:27:32;13.25;;;9.70;;
60472;SDS011;46318;52.716;6.444;2023-07-22T11:29:58;11.30;;;9.27;;
60472;SDS011;46318;52.716;6.444;2023-07-22T11:32:24;11.45;;;10.20;;
60472;SDS011;46318;52.716;6.444;2023-07-22T11:34:51;12.70;;;10.02;;
60472;SDS011;46318;52.716;6.444;2023-07-22T11:37:23;12.57;;;10.50;;
60472;SDS011;46318;52.716;6.444;2023-07-22T11:39:52;20.00;;;17.98;;
60472;SDS011;46318;52.716;6.444;2023-07-22T11:42:20;18.77;;;17.08;;
60472;SDS011;46318;52.716;6.444;2023-07-22T11:44:46;21.85;;;19.75;;
60472;SDS011;46318;52.716;6.444;2023-07-22T11:47:15;19.52;;;17.73;;
60472;SDS011;46318;52.716;6.444;2023-07-22T11:49:41;23.85;;;21.65;;
60472;SDS011;46318;52.716;6.444;2023-07-22T11:54:43;31.77;;;28.50;;
60472;SDS011;46318;52.716;6.444;2023-07-22T11:57:14;16.77;;;13.95;;
60472;SDS011;46318;52.716;6.444;2023-07-22T11:59:52;12.60;;;11.43;;
60472;SDS011;46318;52.716;6.444;2023-07-22T12:02:27;12.55;;;11.35;;
60472;SDS011;46318;52.716;6.444;2023-07-22T12:04:59;10.70;;;9.80;;
60472;SDS011;46318;52.716;6.444;2023-07-22T12:07:36;12.65;;;11.55;;
60472;SDS011;46318;52.716;6.444;2023-07-22T12:10:07;11.80;;;10.80;;
60472;SDS011;46318;52.716;6.444;2023-07-22T12:15:26;12.20;;;11.07;;
60472;SDS011;46318;52.716;6.444;2023-07-22T12:17:59;11.60;;;10.60;;
60472;SDS011;46318;52.716;6.444;2023-07-22T12:20:28;12.23;;;11.23;;
60472;SDS011;46318;52.716;6.444;2023-07-22T12:23:08;13.27;;;12.07;;
60472;SDS011;46318;52.716;6.444;2023-07-22T12:25:38;12.60;;;11.60;;
60472;SDS011;46318;52.716;6.444;2023-07-22T12:28:09;12.45;;;11.35;;
60472;SDS011;46318;52.716;6.444;2023-07-22T12:30:42;12.15;;;11.02;;
60472;SDS011;46318;52.716;6.444;2023-07-22T12:33:08;10.88;;;9.98;;
60472;SDS011;46318;52.716;6.444;2023-07-22T12:35:38;10.38;;;9.48;;
60472;SDS011;46318;52.716;6.444;2023-07-22T12:38:04;9.93;;;9.02;;
60472;SDS011;46318;52.716;6.444;2023-07-22T12:40:31;9.50;;;8.60;;
60472;SDS011;46318;52.716;6.444;2023-07-22T12:43:02;7.53;;;6.80;;
60472;SDS011;46318;52.716;6.444;2023-07-22T12:45:28;7.10;;;6.40;;
60472;SDS011;46318;52.716;6.444;2023-07-22T12:48:01;7.43;;;6.75;;
60472;SDS011;46318;52.716;6.444;2023-07-22T12:50:31;6.78;;;6.07;;
60472;SDS011;46318;52.716;6.444;2023-07-22T12:52:59;8.70;;;6.70;;
60472;SDS011;46318;52.716;6.444;2023-07-22T12:55:25;7.93;;;7.13;;
60472;SDS011;46318;52.716;6.444;2023-07-22T12:57:51;8.07;;;7.20;;
60472;SDS011;46318;52.716;6.444;2023-07-22T13:00:18;8.73;;;7.90;;
60472;SDS011;46318;52.716;6.444;2023-07-22T13:02:44;8.63;;;7.82;;
60472;SDS011;46318;52.716;6.444;2023-07-22T13:08:06;8.75;;;7.85;;
60472;SDS011;46318;52.716;6.444;2023-07-22T13:10:35;8.13;;;7.38;;
60472;SDS011;46318;52.716;6.444;2023-07-22T13:13:04;9.55;;;8.65;;
60472;SDS011;46318;52.716;6.444;2023-07-22T13:15:33;8.10;;;7.40;;
60472;SDS011;46318;52.716;6.444;2023-07-22T13:18:28;8.32;;;7.53;;
60472;SDS011;46318;52.716;6.444;2023-07-22T13:20:54;9.65;;;8.10;;
60472;SDS011;46318;52.716;6.444;2023-07-22T13:23:27;9.27;;;8.43;;
60472;SDS011;46318;52.716;6.444;2023-07-22T13:25:53;7.40;;;6.78;;
60472;SDS011;46318;52.716;6.444;2023-07-22T13:28:19;10.75;;;9.00;;
60472;SDS011;46318;52.716;6.444;2023-07-22T13:30:45;10.02;;;9.02;;
60472;SDS011;46318;52.716;6.444;2023-07-22T13:33:12;9.85;;;8.95;;
60472;SDS011;46318;52.716;6.444;2023-07-22T13:35:38;8.98;;;8.20;;
60472;SDS011;46318;52.716;6.444;2023-07-22T13:38:15;9.23;;;8.40;;
60472;SDS011;46318;52.716;6.444;2023-07-22T13:40:41;9.98;;;8.80;;
60472;SDS011;46318;52.716;6.444;2023-07-22T13:43:07;9.52;;;8.63;;
60472;SDS011;46318;52.716;6.444;2023-07-22T13:45:34;9.57;;;8.68;;
60472;SDS011;46318;52.716;6.444;2023-07-22T13:48:01;10.10;;;9.10;;
60472;SDS011;46318;52.716;6.444;2023-07-22T13:50:27;9.70;;;8.82;;
60472;SDS011;46318;52.716;6.444;2023-07-22T13:52:53;10.70;;;9.75;;
60472;SDS011;46318;52.716;6.444;2023-07-22T13:55:19;11.40;;;9.65;;
60472;SDS011;46318;52.716;6.444;2023-07-22T13:57:45;10.85;;;9.85;;
60472;SDS011;46318;52.716;6.444;2023-07-22T14:00:13;10.43;;;9.43;;
60472;SDS011;46318;52.716;6.444;2023-07-22T14:02:42;10.65;;;9.60;;
60472;SDS011;46318;52.716;6.444;2023-07-22T14:05:08;9.63;;;8.82;;
60472;SDS011;46318;52.716;6.444;2023-07-22T14:07:35;11.20;;;10.10;;
60472;SDS011;46318;52.716;6.444;2023-07-22T14:10:04;10.50;;;9.45;;
60472;SDS011;46318;52.716;6.444;2023-07-22T14:12:31;10.60;;;9.55;;
60472;SDS011;46318;52.716;6.444;2023-07-22T14:15:00;12.60;;;11.38;;
60472;SDS011;46318;52.716;6.444;2023-07-22T14:17:29;11.05;;;10.02;;
60472;SDS011;46318;52.716;6.444;2023-07-22T14:20:02;11.30;;;10.30;;
60472;SDS011;46318;52.716;6.444;2023-07-22T14:22:45;11.38;;;10.38;;
60472;SDS011;46318;52.716;6.444;2023-07-22T14:25:28;11.77;;;10.77;;
60472;SDS011;46318;52.716;6.444;2023-07-22T14:27:56;12.32;;;11.20;;
60472;SDS011;46318;52.716;6.444;2023-07-22T14:30:22;11.98;;;10.88;;
60472;SDS011;46318;52.716;6.444;2023-07-22T14:32:54;11.88;;;10.85;;
60472;SDS011;46318;52.716;6.444;2023-07-22T14:35:21;13.02;;;11.73;;
60472;SDS011;46318;52.716;6.444;2023-07-22T14:37:47;13.40;;;12.10;;
60472;SDS011;46318;52.716;6.444;2023-07-22T14:40:17;12.68;;;11.57;;
60472;SDS011;46318;52.716;6.444;2023-07-22T14:42:48;13.25;;;11.93;;
60472;SDS011;46318;52.716;6.444;2023-07-22T14:45:20;14.43;;;12.93;;
60472;SDS011;46318;52.716;6.444;2023-07-22T14:47:46;14.68;;;13.38;;